createdAt,value
2022-11-22T00:01:34.520Z,150.00
2022-11-22T00:04:23.336Z,155.98
2022-11-22T00:07:05.609Z,149.65
2022-11-22T00:09:54.251Z,158.70
2022-11-22T00:12:36.470Z,152.90
2022-11-22T00:15:25.342Z,150.43
2022-11-22T00:18:07.573Z,159.30
2022-11-22T00:20:57.281Z,166.43
2022-11-22T00:23:52.121Z,163.90
2022-11-22T00:26:40.561Z,161.15
2022-11-22T00:29:24.260Z,169.55
2022-11-22T00:32:06.536Z,165.43
2022-11-22T00:34:56.217Z,175.07
2022-11-22T00:37:38.446Z,172.75
2022-11-22T00:40:27.299Z,167.85
2022-11-22T00:43:15.540Z,174.35
2022-11-22T00:45:58.260Z,177.98
2022-11-22T00:48:47.659Z,184.57
2022-11-22T00:51:29.207Z,175.73
2022-11-22T00:54:18.199Z,180.40
2022-11-22T00:57:00.531Z,170.85
2022-11-22T00:59:49.221Z,173.68
2022-11-22T01:02:38.115Z,179.73
2022-11-22T01:05:26.548Z,168.50
2022-11-22T01:08:08.141Z,154.18
2022-11-22T01:10:56.636Z,155.50
2022-11-22T01:13:39.246Z,165.63
2022-11-22T01:16:21.369Z,150.05
2022-11-22T01:19:10.331Z,148.75
2022-11-22T01:22:05.052Z,148.73
2022-11-22T01:24:54.186Z,141.02
2022-11-22T01:27:36.567Z,150.85
2022-11-22T01:30:26.190Z,157.13
2022-11-22T01:33:08.477Z,155.50
2022-11-22T01:35:57.167Z,165.65
2022-11-22T01:38:39.570Z,161.38
2022-11-22T01:41:28.250Z,165.85
2022-11-22T01:44:56.283Z,163.75
2022-11-22T01:47:38.457Z,157.93
2022-11-22T01:50:31.083Z,162.48
2022-11-22T01:53:25.150Z,164.23
2022-11-22T01:56:10.528Z,154.52
2022-11-22T01:59:05.243Z,159.10
2022-11-22T02:01:55.205Z,174.95
2022-11-22T02:04:45.520Z,177.38
2022-11-22T02:07:44.351Z,171.23
2022-11-22T02:10:36.792Z,172.98
2022-11-22T02:13:21.094Z,164.35
2022-11-22T02:16:04.343Z,166.55
2022-11-22T02:18:53.235Z,173.60
2022-11-22T02:21:49.239Z,170.00
2022-11-22T02:24:58.106Z,169.63
2022-11-22T02:27:40.484Z,163.55
2022-11-22T02:30:29.267Z,151.43
2022-11-22T02:33:12.824Z,167.73
2022-11-22T02:36:01.091Z,158.05
2022-11-22T02:38:43.479Z,162.95
2022-11-22T02:41:33.101Z,162.93
2022-11-22T02:44:17.497Z,160.35
2022-11-22T02:47:06.186Z,155.50
2022-11-22T02:49:55.207Z,162.90
2022-11-22T02:52:37.551Z,170.73
2022-11-22T02:55:26.316Z,186.75
2022-11-22T02:58:08.563Z,181.88
2022-11-22T03:00:57.172Z,184.77
2022-11-22T03:03:46.227Z,176.57
2022-11-22T03:06:28.446Z,182.18
2022-11-22T03:09:17.095Z,197.38
2022-11-22T03:12:06.097Z,184.13
2022-11-22T03:14:54.595Z,183.13
2022-11-22T03:17:37.232Z,188.60
2022-11-22T03:20:25.473Z,179.50
2022-11-22T03:23:14.303Z,181.60
2022-11-22T03:25:56.494Z,184.07
2022-11-22T03:28:45.337Z,174.20
2022-11-22T03:31:27.473Z,179.88
2022-11-22T03:34:16.124Z,189.80
2022-11-22T03:36:58.456Z,153.77
2022-11-22T03:39:47.225Z,151.63
2022-11-22T03:42:29.506Z,137.77
2022-11-22T03:45:18.133Z,140.85
2022-11-22T03:48:07.245Z,138.35
2022-11-22T03:50:55.536Z,137.93
2022-11-22T03:53:37.285Z,130.65
2022-11-22T03:56:25.487Z,120.85
2022-11-22T03:59:07.104Z,124.32
2022-11-22T04:01:55.620Z,120.57
2022-11-22T04:04:38.241Z,115.60
2022-11-22T04:07:20.452Z,120.35
2022-11-22T04:10:09.236Z,119.20
2022-11-22T04:12:58.598Z,111.32
2022-11-22T04:15:40.091Z,110.43
2022-11-22T04:18:29.169Z,106.25
2022-11-22T04:21:30.013Z,113.43
2022-11-22T04:24:38.105Z,109.15
2022-11-22T04:27:27.330Z,112.70
2022-11-22T04:30:20.505Z,106.10
2022-11-22T04:35:52.489Z,106.18
2022-11-22T04:38:35.187Z,87.65
2022-11-22T04:41:23.595Z,91.87
2022-11-22T04:44:24.183Z,95.07
2022-11-22T04:47:12.533Z,104.25
2022-11-22T04:49:55.156Z,90.18
2022-11-22T04:53:03.324Z,92.72
2022-11-22T04:55:54.493Z,99.18
2022-11-22T04:58:37.183Z,92.40
2022-11-22T05:01:25.477Z,95.45
2022-11-22T05:04:07.189Z,98.60
2022-11-22T05:06:57.834Z,97.63
2022-11-22T05:09:41.111Z,104.00
2022-11-22T05:12:30.162Z,100.95
2022-11-22T05:15:12.548Z,107.03
2022-11-22T05:18:01.172Z,118.75
2022-11-22T05:20:44.535Z,107.63
2022-11-22T05:23:56.174Z,114.90
2022-11-22T05:26:48.159Z,105.25
2022-11-22T05:29:36.468Z,111.25
2022-11-22T05:32:19.211Z,106.68
2022-11-22T05:35:08.116Z,98.10
2022-11-22T05:37:57.075Z,91.03
2022-11-22T05:40:46.242Z,86.03
2022-11-22T05:43:35.360Z,72.13
2022-11-22T05:46:27.335Z,83.00
2022-11-22T05:49:10.095Z,75.75
2022-11-22T05:51:59.484Z,77.25
2022-11-22T05:54:41.306Z,67.13
2022-11-22T05:57:29.457Z,75.43
2022-11-22T06:00:13.302Z,79.75
2022-11-22T06:03:01.671Z,65.72
2022-11-22T06:05:44.326Z,65.38
2022-11-22T06:08:26.421Z,69.63
2022-11-22T06:11:45.150Z,62.92
2022-11-22T06:14:35.433Z,68.03
2022-11-22T06:17:21.145Z,64.85
2022-11-22T06:20:10.113Z,67.18
2022-11-22T06:23:00.188Z,55.97
2022-11-22T06:25:49.159Z,56.92
2022-11-22T06:28:38.468Z,52.60
2022-11-22T06:31:27.305Z,43.08
2022-11-22T06:34:16.290Z,41.13
2022-11-22T06:36:58.423Z,41.42
2022-11-22T06:39:47.246Z,38.75
2022-11-22T06:42:36.094Z,45.17
2022-11-22T06:45:19.212Z,42.67
2022-11-22T06:48:08.148Z,32.95
2022-11-22T06:50:50.632Z,43.88
2022-11-22T06:53:47.398Z,45.90
2022-11-22T06:56:32.478Z,50.28
2022-11-22T06:59:22.205Z,51.47
2022-11-22T07:02:11.297Z,47.05
2022-11-22T07:05:23.310Z,54.53
2022-11-22T07:08:07.952Z,50.30
2022-11-22T07:10:55.013Z,50.83
2022-11-22T07:13:44.232Z,53.33
2022-11-22T07:16:26.918Z,46.97
2022-11-22T07:19:16.198Z,55.15
2022-11-22T07:22:11.081Z,60.95
2022-11-22T07:25:00.252Z,43.97
2022-11-22T07:27:42.463Z,44.00
2022-11-22T07:30:31.206Z,37.65
2022-11-22T07:33:20.066Z,30.52
2022-11-22T07:36:17.329Z,47.03
2022-11-22T07:38:59.524Z,38.65
2022-11-22T07:41:48.127Z,48.63
2022-11-22T07:44:30.528Z,49.33
2022-11-22T07:47:22.888Z,49.60
2022-11-22T07:50:05.546Z,51.27
2022-11-22T07:52:54.249Z,54.75
2022-11-22T07:55:36.852Z,53.72
2022-11-22T08:01:19.593Z,51.67
2022-11-22T08:04:08.238Z,57.83
2022-11-22T08:06:50.524Z,51.03
2022-11-22T08:09:39.310Z,45.75
2022-11-22T08:12:21.463Z,56.10
2022-11-22T08:15:10.298Z,59.92
2022-11-22T08:17:52.497Z,58.20
2022-11-22T08:20:41.234Z,59.10
2022-11-22T08:23:23.520Z,64.72
2022-11-22T08:26:13.222Z,56.75
2022-11-22T08:28:55.635Z,55.63
2022-11-22T08:31:44.532Z,53.50
2022-11-22T08:34:26.482Z,44.80
2022-11-22T08:37:16.276Z,37.75
2022-11-22T08:39:58.581Z,38.55
2022-11-22T08:42:47.230Z,34.08
2022-11-22T08:45:29.584Z,42.83
2022-11-22T08:48:22.316Z,33.88
2022-11-22T08:51:08.510Z,26.00
2022-11-22T08:53:57.284Z,29.73
2022-11-22T08:56:39.500Z,24.85
2022-11-22T08:59:29.409Z,30.00
2022-11-22T09:02:12.006Z,25.42
2022-11-22T09:05:01.236Z,21.83
2022-11-22T09:10:52.239Z,25.58
2022-11-22T09:13:34.610Z,22.80
2022-11-22T09:16:30.925Z,27.95
2022-11-22T09:19:13.530Z,19.85
2022-11-22T09:22:02.145Z,19.27
2022-11-22T09:24:50.451Z,22.42
2022-11-22T09:27:33.247Z,26.42
2022-11-22T09:30:22.841Z,18.73
2022-11-22T09:33:06.199Z,20.67
2022-11-22T09:35:55.208Z,25.02
2022-11-22T09:38:39.465Z,26.77
2022-11-22T09:42:12.223Z,25.45
2022-11-22T09:45:29.171Z,24.40
2022-11-22T09:48:23.368Z,18.25
2022-11-22T09:51:22.088Z,15.73
2022-11-22T09:54:18.533Z,19.92
2022-11-22T09:57:04.190Z,18.80
2022-11-22T09:59:57.524Z,16.88
2022-11-22T10:03:00.334Z,16.70
2022-11-22T10:06:21.153Z,28.42
2022-11-22T10:09:37.100Z,18.95
2022-11-22T10:12:51.223Z,22.95
2022-11-22T10:15:46.570Z,15.98
2022-11-22T10:18:40.488Z,22.20
2022-11-22T10:21:29.506Z,22.55
2022-11-22T10:24:33.206Z,19.00
2022-11-22T10:27:23.454Z,17.85
2022-11-22T10:30:10.210Z,17.33
2022-11-22T10:33:14.445Z,17.90
2022-11-22T10:36:07.078Z,20.00
2022-11-22T10:39:23.494Z,23.33
2022-11-22T10:42:31.308Z,17.20
2022-11-22T10:45:19.163Z,21.90
2022-11-22T10:48:46.173Z,21.77
2022-11-22T10:51:56.306Z,20.85
2022-11-22T10:55:07.454Z,20.30
2022-11-22T10:58:04.234Z,24.60
2022-11-22T11:00:51.538Z,20.30
2022-11-22T11:03:48.242Z,26.20
2022-11-22T11:07:04.797Z,20.85
2022-11-22T11:10:12.119Z,23.77
2022-11-22T11:13:09.550Z,21.58
2022-11-22T11:16:06.125Z,26.30
2022-11-22T11:19:15.501Z,22.38
2022-11-22T11:22:09.170Z,23.60
2022-11-22T11:24:57.470Z,29.23
2022-11-22T11:27:40.238Z,23.35
2022-11-22T11:30:22.614Z,26.75
2022-11-22T11:33:12.087Z,20.85
2022-11-22T11:36:04.549Z,37.58
2022-11-22T11:39:03.247Z,30.05
2022-11-22T11:41:52.133Z,32.22
2022-11-22T11:44:47.093Z,38.65
2022-11-22T11:47:36.434Z,33.20
2022-11-22T11:50:54.173Z,33.50
2022-11-22T11:53:37.398Z,41.55
2022-11-22T11:56:50.224Z,47.40
2022-11-22T11:59:47.532Z,38.28
2022-11-22T12:02:48.295Z,35.22
2022-11-22T12:05:41.641Z,45.30
2022-11-22T12:08:50.114Z,47.70
2022-11-22T12:11:55.076Z,63.20
2022-11-22T12:15:09.068Z,63.13
2022-11-22T12:18:03.207Z,52.20
2022-11-22T12:21:01.570Z,47.67
2022-11-22T12:27:18.491Z,49.13
2022-11-22T12:30:01.206Z,37.15
2022-11-22T12:32:59.789Z,44.63
2022-11-22T12:35:51.234Z,36.05
2022-11-22T12:38:43.566Z,39.92
2022-11-22T12:41:35.080Z,38.92
2022-11-22T12:44:35.221Z,51.13
2022-11-22T12:47:29.492Z,48.67
2022-11-22T12:48:23.398Z,45.63
2022-11-22T12:53:30.057Z,53.20
2022-11-22T12:56:31.445Z,41.03
2022-11-22T12:59:36.660Z,40.88
2022-11-22T13:03:03.180Z,41.38
2022-11-22T13:05:55.483Z,38.40
2022-11-22T13:09:20.135Z,56.72
2022-11-22T13:12:21.235Z,53.72
2022-11-22T13:15:10.441Z,66.95
2022-11-22T13:17:53.227Z,52.47
2022-11-22T13:20:48.133Z,44.88
2022-11-22T13:24:06.130Z,49.92
2022-11-22T13:27:06.890Z,54.92
2022-11-22T13:29:51.228Z,70.25
2022-11-22T13:32:37.431Z,66.00
2022-11-22T13:35:29.247Z,68.07
2022-11-22T13:38:19.590Z,68.97
2022-11-22T13:41:08.557Z,55.75
2022-11-22T13:44:01.572Z,52.55
2022-11-22T13:47:08.214Z,59.22
2022-11-22T13:49:56.080Z,76.95
2022-11-22T13:53:05.193Z,68.15
2022-11-22T13:55:54.127Z,87.43
2022-11-22T13:58:51.300Z,61.47
2022-11-22T14:01:41.611Z,67.50
2022-11-22T14:04:33.439Z,61.72
2022-11-22T14:07:18.541Z,62.30
2022-11-22T14:10:10.259Z,60.85
2022-11-22T14:12:58.420Z,71.07
2022-11-22T14:16:06.163Z,72.38
2022-11-22T14:18:51.460Z,67.00
2022-11-22T14:22:13.165Z,73.10
2022-11-22T14:25:16.306Z,70.55
2022-11-22T14:28:43.260Z,78.68
2022-11-22T14:31:41.440Z,82.50
2022-11-22T14:34:35.199Z,64.85
2022-11-22T14:37:23.503Z,66.32
2022-11-22T14:40:18.136Z,53.92
2022-11-22T14:43:37.541Z,59.05
2022-11-22T14:46:51.864Z,67.97
2022-11-22T14:49:51.485Z,84.47
2022-11-22T14:52:38.060Z,110.13
2022-11-22T14:55:38.057Z,106.80
2022-11-22T14:58:33.516Z,94.03
2022-11-22T15:01:36.209Z,87.53
2022-11-22T15:09:10.833Z,74.22
2022-11-22T15:09:20.277Z,79.50
2022-11-22T15:11:34.274Z,79.40
2022-11-22T15:14:54.201Z,76.13
2022-11-22T16:00:02.182Z,88.10
2022-11-22T16:02:57.570Z,86.53
2022-11-22T16:06:07.200Z,87.72
2022-11-22T16:09:09.981Z,86.90
2022-11-22T16:11:53.161Z,97.40
2022-11-22T16:14:51.936Z,98.97
2022-11-22T16:17:38.157Z,89.32
2022-11-22T16:20:30.678Z,95.72
2022-11-22T16:23:27.189Z,107.25
2022-11-22T16:26:39.134Z,101.63
2022-11-22T16:29:33.890Z,87.70
2022-11-22T16:32:24.178Z,100.80
2022-11-22T16:35:28.121Z,92.28
2022-11-22T16:38:15.144Z,109.18
2022-11-22T16:41:03.701Z,102.78
2022-11-22T16:43:52.144Z,111.18
2022-11-22T16:46:41.126Z,110.35
2022-11-22T16:49:31.639Z,96.10
2022-11-22T16:52:20.121Z,102.45
2022-11-22T16:55:09.693Z,101.10
2022-11-22T16:57:52.176Z,96.40
2022-11-22T17:00:36.474Z,105.90
2022-11-22T17:03:29.131Z,105.80
2022-11-22T17:06:30.161Z,110.93
2022-11-22T17:09:12.472Z,95.30
2022-11-22T17:12:01.175Z,108.57
2022-11-22T17:14:44.285Z,106.05
2022-11-22T17:17:33.137Z,102.95
2022-11-22T17:20:16.721Z,138.00
2022-11-22T17:23:05.177Z,111.95
2022-11-22T17:25:54.592Z,113.97
2022-11-22T17:28:37.171Z,116.32
2022-11-22T17:31:28.130Z,116.30
2022-11-22T17:34:17.160Z,117.22
2022-11-22T17:37:06.606Z,115.05
2022-11-22T17:39:49.152Z,118.00
2022-11-22T17:42:41.294Z,118.20
2022-11-22T17:45:24.155Z,122.38
2022-11-22T17:48:13.791Z,115.88
2022-11-22T17:50:57.158Z,117.72
2022-11-22T17:53:40.481Z,115.72
2022-11-22T17:56:29.128Z,112.45
2022-11-22T17:59:11.471Z,116.20
2022-11-22T18:02:00.172Z,131.65
2022-11-22T18:04:43.691Z,133.40
2022-11-22T18:07:33.252Z,131.20
2022-11-22T18:10:22.560Z,117.97
2022-11-22T18:13:20.724Z,120.80
2022-11-22T18:16:15.176Z,126.90
2022-11-22T18:18:58.606Z,129.63
2022-11-22T18:21:48.116Z,127.45
2022-11-22T18:24:37.041Z,136.57
2022-11-22T18:27:26.618Z,125.03
2022-11-22T18:30:09.158Z,138.60
2022-11-22T18:32:59.118Z,127.57
2022-11-22T18:35:42.139Z,118.00
2022-11-22T18:38:31.574Z,138.63
2022-11-22T18:41:14.109Z,127.53
2022-11-22T18:44:08.592Z,129.40
2022-11-22T18:46:53.134Z,130.98
2022-11-22T18:49:42.665Z,120.20
2022-11-22T18:52:25.059Z,117.88
2022-11-22T18:55:18.764Z,138.80
2022-11-22T18:58:02.172Z,136.85
2022-11-22T19:00:54.729Z,129.02
2022-11-22T19:03:37.658Z,136.85
2022-11-22T19:06:21.047Z,122.18
2022-11-22T19:09:10.219Z,131.98
2022-11-22T19:11:58.354Z,136.50
2022-11-22T19:14:47.456Z,124.50
2022-11-22T19:17:36.424Z,127.97
2022-11-22T19:20:47.317Z,131.98
2022-11-22T19:26:30.160Z,138.18
2022-11-22T19:29:12.421Z,144.05
2022-11-22T19:32:01.238Z,152.80
2022-11-22T19:34:44.641Z,136.73
2022-11-22T19:37:33.103Z,139.10
2022-11-22T19:40:16.423Z,119.07
2022-11-22T19:43:05.094Z,143.15
2022-11-22T19:45:47.497Z,138.27
2022-11-22T19:48:36.080Z,135.98
2022-11-22T19:51:23.392Z,119.65
2022-11-22T19:54:13.107Z,134.15
2022-11-22T19:56:55.406Z,128.25
2022-11-22T19:59:44.188Z,154.30
2022-11-22T20:02:26.410Z,132.88
2022-11-22T20:05:15.135Z,149.55
2022-11-22T20:07:57.435Z,150.50
2022-11-22T20:10:48.090Z,139.13
2022-11-22T20:13:30.408Z,136.27
2022-11-22T20:16:34.586Z,159.63
2022-11-22T20:19:17.685Z,154.48
2022-11-22T20:22:06.208Z,137.07
2022-11-22T20:24:54.421Z,159.35
2022-11-22T20:27:37.077Z,148.70
2022-11-22T20:30:25.357Z,139.70
2022-11-22T20:33:07.159Z,136.63
2022-11-22T20:35:55.366Z,151.38
2022-11-22T20:38:44.106Z,136.95
2022-11-22T20:41:38.088Z,153.23
2022-11-22T20:44:24.654Z,163.77
2022-11-22T20:47:16.188Z,152.75
2022-11-22T20:49:58.354Z,144.27
2022-11-22T20:52:47.153Z,142.65
2022-11-22T20:55:29.502Z,145.10
2022-11-22T20:58:18.140Z,145.57
2022-11-22T21:01:04.404Z,146.27
2022-11-22T21:03:53.048Z,133.85
2022-11-22T21:06:43.032Z,148.85
2022-11-22T21:09:31.406Z,133.00
2022-11-22T21:12:14.934Z,127.43
2022-11-22T21:15:03.741Z,141.73
2022-11-22T21:18:09.241Z,138.25
2022-11-22T21:20:48.257Z,123.25
2022-11-22T21:23:37.196Z,125.25
2022-11-22T21:26:26.406Z,136.23
2022-11-22T21:29:15.949Z,129.93
2022-11-22T21:32:04.393Z,143.60
2022-11-22T21:34:47.151Z,142.70
2022-11-22T21:37:35.431Z,156.65
2022-11-22T21:40:19.067Z,127.85
2022-11-22T21:43:08.026Z,148.13
2022-11-22T21:45:50.748Z,130.63
2022-11-22T21:48:39.971Z,120.18
2022-11-22T21:51:23.527Z,123.30
2022-11-22T21:54:12.005Z,130.98
2022-11-22T21:56:57.301Z,122.45
2022-11-22T21:59:49.053Z,126.57
2022-11-22T22:02:31.719Z,130.30
2022-11-22T22:05:21.006Z,130.57
2022-11-22T22:08:10.055Z,123.65
2022-11-22T22:11:03.381Z,122.45
2022-11-22T22:13:46.170Z,125.07
2022-11-22T22:16:34.326Z,129.00
2022-11-22T22:19:17.860Z,125.15
2022-11-22T22:22:00.275Z,114.70
2022-11-22T22:24:49.160Z,122.57
2022-11-22T22:27:40.421Z,136.65
2022-11-22T22:30:24.119Z,117.55
2022-11-22T22:33:13.037Z,129.93
2022-11-22T22:36:05.172Z,123.00
2022-11-22T22:38:53.423Z,124.03
2022-11-22T22:41:36.176Z,124.80
2022-11-22T22:44:24.427Z,121.00
2022-11-22T22:47:07.119Z,116.85
2022-11-22T22:49:56.113Z,119.75
2022-11-22T22:52:38.358Z,108.72
2022-11-22T22:55:26.977Z,122.35
2022-11-22T22:58:20.608Z,117.55
2022-11-22T23:01:22.381Z,113.10
2022-11-22T23:04:10.062Z,109.78
2022-11-22T23:06:52.281Z,106.93
2022-11-22T23:09:41.092Z,115.60
2022-11-22T23:12:29.321Z,112.57
2022-11-22T23:15:12.019Z,117.75
2022-11-22T23:18:01.160Z,118.13
2022-11-22T23:20:43.346Z,120.60
2022-11-22T23:23:32.429Z,113.05
2022-11-22T23:26:21.402Z,110.18
2022-11-22T23:29:04.065Z,138.20
2022-11-22T23:31:53.010Z,122.75
2022-11-22T23:34:42.149Z,108.82
2022-11-22T23:37:30.389Z,108.35
2022-11-22T23:40:13.123Z,126.32
2022-11-22T23:43:04.004Z,116.43
2022-11-22T23:45:58.975Z,110.88
2022-11-22T23:48:47.406Z,110.10
2022-11-22T23:51:30.081Z,112.47
2022-11-22T23:54:12.350Z,109.20
2022-11-22T23:57:01.149Z,103.57
2022-11-22T23:59:49.419Z,104.38
